KFWS

Fort Worth Spinks Airport

Fort Worth, Texas, USA
METAR KFWS 212346Z 31011KT 5SM -RA BKN005 OVC011 02/01 A3027
Observed Flight Rules
Feb-21 @ 23:46 UTC (5 hours ago) Instrument Flight Rules
Wind Visibility Clouds Conditions
310° at 11 knots 5 miles
  • Broken at 500' AGL
  • Overcast at 1,100' AGL
  • Light Rain
Temperatures Readings
Current 2°C / 36°F
Dewpoint 1°C / 34°F
Humidity 93%
Altimeter 30.27" Hg
Pressure 1025 hPa
Elevation 208
METAR KFWS 212346Z 31011KT 5SM -RA BKN005 OVC011 02/01 A3027
Observed Flight Rules
Feb-21 @ 23:46 UTC
(5 hours ago)
IFR
Wind Visibility
310° at 11 knots 5 miles
Clouds
  • Broken at 500' AGL
  • Overcast at 1,100' AGL
Conditions
  • Light Rain
Temperature Dewpoint
2°C / 36°F 1°C / 34°F
Humidity Altimeter Pressure
93% 30.27" Hg 1025 hPa